PWSweather.com
Personal Weather Stations
Station Observations
CALONGE
CalongeES 17251

CalongeES 17251

Lat: 41.85972222, Lon: 3.077777778

Elevation: 16

Station Type: Oregon WMR928N

www.calonge-meteoweb.com

High Low Average
Temperature 77.0°F25.0°C 55.0°F12.8°C 66.3°F19.1°C
Dew Point 60.5°F15.8°C 35.4°F1.9°C 50.6°F10.3°C
Winds 12.0 mph 19.3 kmh Calm Calm 6.0 mph SSW9.7 kmh SSW
Wind Gusts 24.0 mph38.6 kmh -- 11.0 mph17.7 kmh
Humidity 89% 34% 60%
Pressure 29.86 in1011.2 mb 29.65 in1004.1 mb -
Precipitation 0.00 in0.0 mm - -
Hour Temp Dew Point Humidity Winds Wind Gusts Pressure Precip Precip Rate Daily Precip Total
12:00 AM 59.5°F15.3°C 52.3°F11.3°C 77% Calm Calm -- 29.80 in1009.1 mb 0.00 in0.0 mm 0.00 in0.0 mm 0.00 in0.0 mm
12:15 AM 59.0°F15.0°C 51.4°F10.8°C 76% Calm Calm -- 29.80 in1009.1 mb 0.00 in0.0 mm 0.00 in0.0 mm 0.00 in0.0 mm
12:30 AM 58.6°F14.8°C 51.4°F10.8°C 77% Calm Calm -- 29.80 in1009.1 mb 0.00 in0.0 mm 0.00 in0.0 mm 0.00 in0.0 mm
12:45 AM 57.9°F14.4°C 50.4°F10.2°C 76% Calm Calm -- 29.80 in1009.1 mb 0.00 in0.0 mm 0.00 in0.0 mm 0.00 in0.0 mm
01:00 AM 57.6°F14.2°C 50.8°F10.4°C 78% Calm Calm -- 29.77 in1008.1 mb 0.00 in0.0 mm 0.00 in0.0 mm 0.00 in0.0 mm
01:15 AM 57.0°F13.9°C 50.2°F10.1°C 78% Calm Calm -- 29.80 in1009.1 mb 0.00 in0.0 mm 0.00 in0.0 mm 0.00 in0.0 mm
01:30 AM 56.7°F13.7°C 49.9°F9.9°C 78% Calm Calm -- 29.80 in1009.1 mb 0.00 in0.0 mm 0.00 in0.0 mm 0.00 in0.0 mm
01:45 AM 56.5°F13.6°C 50.0°F10.0°C 79% Calm Calm -- 29.77 in1008.1 mb 0.00 in0.0 mm 0.00 in0.0 mm 0.00 in0.0 mm
02:00 AM 56.7°F13.7°C 49.9°F9.9°C 78% 4.1 mph W6.6 kmh W 6.4 mph10.3 kmh 29.77 in1008.1 mb 0.00 in0.0 mm 0.00 in0.0 mm 0.00 in0.0 mm
02:15 AM 56.1°F13.4°C 49.4°F9.7°C 78% Calm Calm -- 29.77 in1008.1 mb 0.00 in0.0 mm 0.00 in0.0 mm 0.00 in0.0 mm
02:30 AM 55.8°F13.2°C 49.3°F9.6°C 79% Calm Calm -- 29.77 in1008.1 mb 0.00 in0.0 mm 0.00 in0.0 mm 0.00 in0.0 mm
02:45 AM 55.8°F13.2°C 49.7°F9.8°C 80% Calm Calm -- 29.77 in1008.1 mb 0.00 in0.0 mm 0.00 in0.0 mm 0.00 in0.0 mm
03:00 AM 55.8°F13.2°C 49.7°F9.8°C 80% 5.3 mph WNW8.5 kmh WNW 8.2 mph13.2 kmh 29.77 in1008.1 mb 0.00 in0.0 mm 0.00 in0.0 mm 0.00 in0.0 mm
03:15 AM 55.2°F12.9°C 49.2°F9.6°C 80% 3.5 mph W5.6 kmh W 5.3 mph8.5 kmh 29.77 in1008.1 mb 0.00 in0.0 mm 0.00 in0.0 mm 0.00 in0.0 mm
03:30 AM 55.2°F12.9°C 49.8°F9.9°C 82% 5.3 mph WNW8.5 kmh WNW 6.4 mph10.3 kmh 29.74 in1007.1 mb 0.00 in0.0 mm 0.00 in0.0 mm 0.00 in0.0 mm
03:45 AM 55.4°F13.0°C 50.0°F10.0°C 82% 4.7 mph WNW7.6 kmh WNW 8.2 mph13.2 kmh 29.74 in1007.1 mb 0.00 in0.0 mm 0.00 in0.0 mm 0.00 in0.0 mm
04:00 AM 55.6°F13.1°C 50.2°F10.1°C 82% 3.5 mph WNW5.6 kmh WNW 7.0 mph11.3 kmh 29.74 in1007.1 mb 0.00 in0.0 mm 0.00 in0.0 mm 0.00 in0.0 mm
04:15 AM 55.0°F12.8°C 49.6°F9.8°C 82% Calm Calm 5.3 mph8.5 kmh 29.74 in1007.1 mb 0.00 in0.0 mm 0.00 in0.0 mm 0.00 in0.0 mm
04:30 AM 55.4°F13.0°C 50.6°F10.3°C 84% 5.9 mph W9.5 kmh W 7.6 mph12.2 kmh 29.74 in1007.1 mb 0.00 in0.0 mm 0.00 in0.0 mm 0.00 in0.0 mm
04:45 AM 56.5°F13.6°C 52.0°F11.1°C 85% 4.7 mph W7.6 kmh W 8.2 mph13.2 kmh 29.74 in1007.1 mb 0.00 in0.0 mm 0.00 in0.0 mm 0.00 in0.0 mm
05:00 AM 57.2°F14.0°C 52.4°F11.3°C 84% 6.4 mph W10.3 kmh W 7.0 mph11.3 kmh 29.74 in1007.1 mb 0.00 in0.0 mm 0.00 in0.0 mm 0.00 in0.0 mm
05:15 AM 57.9°F14.4°C 52.8°F11.6°C 83% 4.7 mph W7.6 kmh W 7.6 mph12.2 kmh 29.74 in1007.1 mb 0.00 in0.0 mm 0.00 in0.0 mm 0.00 in0.0 mm
05:30 AM 58.5°F14.7°C 53.3°F11.8°C 83% 3.5 mph W5.6 kmh W 7.0 mph11.3 kmh 29.74 in1007.1 mb 0.00 in0.0 mm 0.00 in0.0 mm 0.00 in0.0 mm
05:45 AM 59.4°F15.2°C 54.8°F12.7°C 85% 5.3 mph NW8.5 kmh NW 8.2 mph13.2 kmh 29.74 in1007.1 mb 0.00 in0.0 mm 0.00 in0.0 mm 0.00 in0.0 mm
06:00 AM 61.0°F16.1°C 57.7°F14.3°C 89% 3.5 mph NW5.6 kmh NW 8.2 mph13.2 kmh 29.74 in1007.1 mb 0.00 in0.0 mm 0.00 in0.0 mm 0.00 in0.0 mm
06:15 AM 61.7°F16.5°C 58.4°F14.7°C 89% 4.7 mph NW7.6 kmh NW 8.2 mph13.2 kmh 29.74 in1007.1 mb 0.00 in0.0 mm 0.00 in0.0 mm 0.00 in0.0 mm
06:30 AM 62.2°F16.8°C 59.0°F15.0°C 89% 4.1 mph NW6.6 kmh NW 7.6 mph12.2 kmh 29.74 in1007.1 mb 0.00 in0.0 mm 0.00 in0.0 mm 0.00 in0.0 mm
06:45 AM 63.0°F17.2°C 59.0°F15.0°C 87% Calm Calm 7.0 mph11.3 kmh 29.74 in1007.1 mb 0.00 in0.0 mm 0.00 in0.0 mm 0.00 in0.0 mm
07:00 AM 63.5°F17.5°C 59.2°F15.1°C 86% 7.0 mph WNW11.3 kmh WNW 8.2 mph13.2 kmh 29.74 in1007.1 mb 0.00 in0.0 mm 0.00 in0.0 mm 0.00 in0.0 mm
07:15 AM 64.2°F17.9°C 59.3°F15.2°C 84% Calm Calm 6.4 mph10.3 kmh 29.74 in1007.1 mb 0.00 in0.0 mm 0.00 in0.0 mm 0.00 in0.0 mm
07:30 AM 64.9°F18.3°C 59.3°F15.2°C 82% Calm Calm 5.3 mph8.5 kmh 29.71 in1006.1 mb 0.00 in0.0 mm 0.00 in0.0 mm 0.00 in0.0 mm
07:45 AM 66.2°F19.0°C 60.5°F15.8°C 82% Calm Calm 9.4 mph15.1 kmh 29.71 in1006.1 mb 0.00 in0.0 mm 0.00 in0.0 mm 0.00 in0.0 mm
08:00 AM 68.0°F20.0°C 60.2°F15.7°C 76% 7.0 mph E11.3 kmh E 8.2 mph13.2 kmh 29.71 in1006.1 mb 0.00 in0.0 mm 0.00 in0.0 mm 0.00 in0.0 mm
08:15 AM 68.4°F20.2°C 59.0°F15.0°C 72% Calm Calm 7.0 mph11.3 kmh 29.71 in1006.1 mb 0.00 in0.0 mm 0.00 in0.0 mm 0.00 in0.0 mm
08:30 AM 68.7°F20.4°C 58.5°F14.7°C 70% 5.3 mph ENE8.5 kmh ENE 10.5 mph16.9 kmh 29.71 in1006.1 mb 0.00 in0.0 mm 0.00 in0.0 mm 0.00 in0.0 mm
08:45 AM 69.3°F20.7°C 58.2°F14.6°C 68% 7.6 mph E12.2 kmh E 11.4 mph18.3 kmh 29.71 in1006.1 mb 0.00 in0.0 mm 0.00 in0.0 mm 0.00 in0.0 mm
09:00 AM 69.3°F20.7°C 57.8°F14.3°C 67% 6.4 mph E10.3 kmh E 7.6 mph12.2 kmh 29.71 in1006.1 mb 0.00 in0.0 mm 0.00 in0.0 mm 0.00 in0.0 mm
09:15 AM 69.4°F20.8°C 57.6°F14.2°C 66% 5.3 mph E8.5 kmh E 7.6 mph12.2 kmh 29.71 in1006.1 mb 0.00 in0.0 mm 0.00 in0.0 mm 0.00 in0.0 mm
09:30 AM 70.2°F21.2°C 58.3°F14.6°C 66% 3.5 mph E5.6 kmh E 7.0 mph11.3 kmh 29.71 in1006.1 mb 0.00 in0.0 mm 0.00 in0.0 mm 0.00 in0.0 mm
09:45 AM 70.9°F21.6°C 59.4°F15.2°C 67% 6.4 mph SE10.3 kmh SE 10.0 mph16.1 kmh 29.71 in1006.1 mb 0.00 in0.0 mm 0.00 in0.0 mm 0.00 in0.0 mm
10:00 AM 71.1°F21.7°C 59.1°F15.1°C 66% 4.7 mph E7.6 kmh E 10.8 mph17.4 kmh 29.71 in1006.1 mb 0.00 in0.0 mm 0.00 in0.0 mm 0.00 in0.0 mm
10:15 AM 72.3°F22.4°C 59.5°F15.3°C 64% 10.8 mph SE17.4 kmh SE 13.8 mph22.2 kmh 29.71 in1006.1 mb 0.00 in0.0 mm 0.00 in0.0 mm 0.00 in0.0 mm
10:30 AM 72.9°F22.7°C 59.5°F15.3°C 63% Calm Calm 10.8 mph17.4 kmh 29.71 in1006.1 mb 0.00 in0.0 mm 0.00 in0.0 mm 0.00 in0.0 mm
10:45 AM 73.6°F23.1°C 59.3°F15.2°C 61% 8.8 mph ESE14.2 kmh ESE 11.4 mph18.3 kmh 29.71 in1006.1 mb 0.00 in0.0 mm 0.00 in0.0 mm 0.00 in0.0 mm
11:00 AM 73.8°F23.2°C 58.5°F14.7°C 59% 7.6 mph ESE12.2 kmh ESE 11.4 mph18.3 kmh 29.68 in1005.1 mb 0.00 in0.0 mm 0.00 in0.0 mm 0.00 in0.0 mm
11:15 AM 74.7°F23.7°C 58.9°F14.9°C 58% 7.0 mph SE11.3 kmh SE 16.1 mph25.9 kmh 29.68 in1005.1 mb 0.00 in0.0 mm 0.00 in0.0 mm 0.00 in0.0 mm
11:30 AM 74.1°F23.4°C 59.8°F15.4°C 61% 8.8 mph SE14.2 kmh SE 13.8 mph22.2 kmh 29.68 in1005.1 mb 0.00 in0.0 mm 0.00 in0.0 mm 0.00 in0.0 mm
11:45 AM 74.1°F23.4°C 60.3°F15.7°C 62% 8.8 mph SE14.2 kmh SE 17.3 mph27.8 kmh 29.68 in1005.1 mb 0.00 in0.0 mm 0.00 in0.0 mm 0.00 in0.0 mm
12:00 PM 73.4°F23.0°C 59.6°F15.3°C 62% 7.0 mph SE11.3 kmh SE 14.4 mph23.2 kmh 29.68 in1005.1 mb 0.00 in0.0 mm 0.00 in0.0 mm 0.00 in0.0 mm
12:15 PM 73.4°F23.0°C 60.0°F15.6°C 63% 3.5 mph SE5.6 kmh SE 14.9 mph24.0 kmh 29.68 in1005.1 mb 0.00 in0.0 mm 0.00 in0.0 mm 0.00 in0.0 mm
12:30 PM 73.9°F23.3°C 58.2°F14.6°C 58% 10.8 mph SSE17.4 kmh SSE 17.3 mph27.8 kmh 29.68 in1005.1 mb 0.00 in0.0 mm 0.00 in0.0 mm 0.00 in0.0 mm
12:45 PM 74.7°F23.7°C 58.9°F14.9°C 58% 8.2 mph SE13.2 kmh SE 18.5 mph29.8 kmh 29.68 in1005.1 mb 0.00 in0.0 mm 0.00 in0.0 mm 0.00 in0.0 mm
01:00 PM 75.0°F23.9°C 56.2°F13.4°C 52% 12.0 mph SSE19.3 kmh SSE 16.1 mph25.9 kmh 29.68 in1005.1 mb 0.00 in0.0 mm 0.00 in0.0 mm 0.00 in0.0 mm
01:15 PM 74.8°F23.8°C 55.5°F13.1°C 51% 10.8 mph SSE17.4 kmh SSE 16.7 mph26.9 kmh 29.65 in1004.1 mb 0.00 in0.0 mm 0.00 in0.0 mm 0.00 in0.0 mm
01:30 PM 76.1°F24.5°C 58.2°F14.6°C 54% 7.0 mph SE11.3 kmh SE 16.1 mph25.9 kmh 29.65 in1004.1 mb 0.00 in0.0 mm 0.00 in0.0 mm 0.00 in0.0 mm
01:45 PM 75.9°F24.4°C 58.6°F14.8°C 55% 7.6 mph SE12.2 kmh SE 13.8 mph22.2 kmh 29.65 in1004.1 mb 0.00 in0.0 mm 0.00 in0.0 mm 0.00 in0.0 mm
02:00 PM 75.6°F24.2°C 59.3°F15.2°C 57% 10.0 mph SSE16.1 kmh SSE 19.6 mph31.5 kmh 29.65 in1004.1 mb 0.00 in0.0 mm 0.00 in0.0 mm 0.00 in0.0 mm
02:15 PM 75.4°F24.1°C 58.6°F14.8°C 56% 9.4 mph SE15.1 kmh SE 24.0 mph38.6 kmh 29.65 in1004.1 mb 0.00 in0.0 mm 0.00 in0.0 mm 0.00 in0.0 mm
02:30 PM 75.9°F24.4°C 55.9°F13.3°C 50% 9.4 mph S15.1 kmh S 19.6 mph31.5 kmh 29.65 in1004.1 mb 0.00 in0.0 mm 0.00 in0.0 mm 0.00 in0.0 mm
02:45 PM 76.6°F24.8°C 56.6°F13.7°C 50% 10.8 mph S17.4 kmh S 18.5 mph29.8 kmh 29.65 in1004.1 mb 0.00 in0.0 mm 0.00 in0.0 mm 0.00 in0.0 mm
03:00 PM 75.9°F24.4°C 57.6°F14.2°C 53% 8.2 mph S13.2 kmh S 22.9 mph36.9 kmh 29.65 in1004.1 mb 0.00 in0.0 mm 0.00 in0.0 mm 0.00 in0.0 mm
03:15 PM 75.9°F24.4°C 57.6°F14.2°C 53% 5.9 mph S9.5 kmh S 13.8 mph22.2 kmh 29.65 in1004.1 mb 0.00 in0.0 mm 0.00 in0.0 mm 0.00 in0.0 mm
03:30 PM 76.3°F24.6°C 57.9°F14.4°C 53% 10.0 mph S16.1 kmh S 17.9 mph28.8 kmh 29.65 in1004.1 mb 0.00 in0.0 mm 0.00 in0.0 mm 0.00 in0.0 mm
03:45 PM 76.5°F24.7°C 56.4°F13.6°C 50% 9.4 mph S15.1 kmh S 13.8 mph22.2 kmh 29.65 in1004.1 mb 0.00 in0.0 mm 0.00 in0.0 mm 0.00 in0.0 mm
04:00 PM 77.0°F25.0°C 54.6°F12.6°C 46% 9.4 mph SSW15.1 kmh SSW 17.3 mph27.8 kmh 29.65 in1004.1 mb 0.00 in0.0 mm 0.00 in0.0 mm 0.00 in0.0 mm
04:15 PM 76.8°F24.9°C 54.5°F12.5°C 46% 9.4 mph SSW15.1 kmh SSW 14.4 mph23.2 kmh 29.65 in1004.1 mb 0.00 in0.0 mm 0.00 in0.0 mm 0.00 in0.0 mm
04:30 PM 76.8°F24.9°C 55.6°F13.1°C 48% 7.6 mph SSW12.2 kmh SSW 15.5 mph24.9 kmh 29.65 in1004.1 mb 0.00 in0.0 mm 0.00 in0.0 mm 0.00 in0.0 mm
04:45 PM 75.0°F23.9°C 56.2°F13.4°C 52% 5.9 mph S9.5 kmh S 10.8 mph17.4 kmh 29.65 in1004.1 mb 0.00 in0.0 mm 0.00 in0.0 mm 0.00 in0.0 mm
05:00 PM 75.0°F23.9°C 56.2°F13.4°C 52% 6.4 mph NNE10.3 kmh NNE 22.9 mph36.9 kmh 29.65 in1004.1 mb 0.00 in0.0 mm 0.00 in0.0 mm 0.00 in0.0 mm
05:15 PM 70.3°F21.3°C 47.4°F8.6°C 44% 5.3 mph NNE8.5 kmh NNE 14.4 mph23.2 kmh 29.71 in1006.1 mb 0.00 in0.0 mm 0.00 in0.0 mm 0.00 in0.0 mm
05:30 PM 69.3°F20.7°C 41.2°F5.1°C 36% 8.2 mph N13.2 kmh N 11.4 mph18.3 kmh 29.71 in1006.1 mb 0.00 in0.0 mm 0.00 in0.0 mm 0.00 in0.0 mm
05:45 PM 68.5°F20.3°C 39.8°F4.3°C 35% 8.2 mph NNW13.2 kmh NNW 16.1 mph25.9 kmh 29.74 in1007.1 mb 0.00 in0.0 mm 0.00 in0.0 mm 0.00 in0.0 mm
06:00 PM 68.4°F20.2°C 38.9°F3.8°C 34% 5.9 mph NNW9.5 kmh NNW 10.0 mph16.1 kmh 29.74 in1007.1 mb 0.00 in0.0 mm 0.00 in0.0 mm 0.00 in0.0 mm
06:15 PM 68.2°F20.1°C 39.5°F4.2°C 35% 4.1 mph N6.6 kmh N 10.0 mph16.1 kmh 29.74 in1007.1 mb 0.00 in0.0 mm 0.00 in0.0 mm 0.00 in0.0 mm
06:30 PM 68.2°F20.1°C 39.5°F4.2°C 35% 5.9 mph NW9.5 kmh NW 12.6 mph20.3 kmh 29.74 in1007.1 mb 0.00 in0.0 mm 0.00 in0.0 mm 0.00 in0.0 mm
06:45 PM 68.0°F20.0°C 38.6°F3.7°C 34% 8.8 mph NW14.2 kmh NW 13.8 mph22.2 kmh 29.74 in1007.1 mb 0.00 in0.0 mm 0.00 in0.0 mm 0.00 in0.0 mm
07:00 PM 67.8°F19.9°C 39.2°F4.0°C 35% 8.8 mph NW14.2 kmh NW 13.8 mph22.2 kmh 29.74 in1007.1 mb 0.00 in0.0 mm 0.00 in0.0 mm 0.00 in0.0 mm
07:15 PM 67.5°F19.7°C 38.8°F3.8°C 35% 8.8 mph NW14.2 kmh NW 14.4 mph23.2 kmh 29.77 in1008.1 mb 0.00 in0.0 mm 0.00 in0.0 mm 0.00 in0.0 mm
07:30 PM 66.9°F19.4°C 37.6°F3.1°C 34% 10.8 mph NW17.4 kmh NW 16.7 mph26.9 kmh 29.77 in1008.1 mb 0.00 in0.0 mm 0.00 in0.0 mm 0.00 in0.0 mm
07:45 PM 66.7°F19.3°C 37.5°F3.1°C 34% 7.0 mph NW11.3 kmh NW 13.8 mph22.2 kmh 29.77 in1008.1 mb 0.00 in0.0 mm 0.00 in0.0 mm 0.00 in0.0 mm
08:00 PM 65.3°F18.5°C 37.6°F3.1°C 36% 10.0 mph NW16.1 kmh NW 14.4 mph23.2 kmh 29.77 in1008.1 mb 0.00 in0.0 mm 0.00 in0.0 mm 0.00 in0.0 mm
08:15 PM 64.8°F18.2°C 37.2°F2.9°C 36% 8.2 mph NW13.2 kmh NW 14.4 mph23.2 kmh 29.80 in1009.1 mb 0.00 in0.0 mm 0.00 in0.0 mm 0.00 in0.0 mm
08:30 PM 64.4°F18.0°C 37.5°F3.1°C 37% 9.4 mph NW15.1 kmh NW 13.2 mph21.2 kmh 29.80 in1009.1 mb 0.00 in0.0 mm 0.00 in0.0 mm 0.00 in0.0 mm
08:45 PM 63.9°F17.7°C 37.7°F3.2°C 38% 10.0 mph NW16.1 kmh NW 14.4 mph23.2 kmh 29.80 in1009.1 mb 0.00 in0.0 mm 0.00 in0.0 mm 0.00 in0.0 mm
09:00 PM 63.5°F17.5°C 37.4°F3.0°C 38% 9.4 mph NW15.1 kmh NW 16.1 mph25.9 kmh 29.80 in1009.1 mb 0.00 in0.0 mm 0.00 in0.0 mm 0.00 in0.0 mm
09:15 PM 63.3°F17.4°C 37.3°F2.9°C 38% 9.4 mph NW15.1 kmh NW 17.3 mph27.8 kmh 29.83 in1010.2 mb 0.00 in0.0 mm 0.00 in0.0 mm 0.00 in0.0 mm
09:30 PM 63.3°F17.4°C 36.6°F2.6°C 37% 10.0 mph NW16.1 kmh NW 13.2 mph21.2 kmh 29.83 in1010.2 mb 0.00 in0.0 mm 0.00 in0.0 mm 0.00 in0.0 mm
09:45 PM 63.3°F17.4°C 35.9°F2.2°C 36% 8.8 mph NW14.2 kmh NW 13.8 mph22.2 kmh 29.83 in1010.2 mb 0.00 in0.0 mm 0.00 in0.0 mm 0.00 in0.0 mm
10:00 PM 63.3°F17.4°C 35.9°F2.2°C 36% 7.0 mph NW11.3 kmh NW 13.2 mph21.2 kmh 29.83 in1010.2 mb 0.00 in0.0 mm 0.00 in0.0 mm 0.00 in0.0 mm
10:15 PM 63.1°F17.3°C 35.7°F2.1°C 36% 10.0 mph NW16.1 kmh NW 13.8 mph22.2 kmh 29.86 in1011.2 mb 0.00 in0.0 mm 0.00 in0.0 mm 0.00 in0.0 mm
10:30 PM 63.1°F17.3°C 35.7°F2.1°C 36% 10.5 mph NW16.9 kmh NW 14.4 mph23.2 kmh 29.86 in1011.2 mb 0.00 in0.0 mm 0.00 in0.0 mm 0.00 in0.0 mm
10:45 PM 63.1°F17.3°C 35.7°F2.1°C 36% 8.8 mph NW14.2 kmh NW 13.2 mph21.2 kmh 29.86 in1011.2 mb 0.00 in0.0 mm 0.00 in0.0 mm 0.00 in0.0 mm
11:00 PM 63.0°F17.2°C 36.3°F2.4°C 37% 10.0 mph WNW16.1 kmh WNW 16.7 mph26.9 kmh 29.86 in1011.2 mb 0.00 in0.0 mm 0.00 in0.0 mm 0.00 in0.0 mm
11:15 PM 62.8°F17.1°C 35.4°F1.9°C 36% 8.2 mph WNW13.2 kmh WNW 11.4 mph18.3 kmh 29.86 in1011.2 mb 0.00 in0.0 mm 0.00 in0.0 mm 0.00 in0.0 mm
11:30 PM 62.8°F17.1°C 35.4°F1.9°C 36% 7.6 mph NW12.2 kmh NW 14.9 mph24.0 kmh 29.86 in1011.2 mb 0.00 in0.0 mm 0.00 in0.0 mm 0.00 in0.0 mm
11:45 PM 62.4°F16.9°C 36.5°F2.5°C 38% 4.1 mph NW6.6 kmh NW 16.7 mph26.9 kmh 29.86 in1011.2 mb 0.00 in0.0 mm 0.00 in0.0 mm 0.00 in0.0 mm